sensor_id;sensor_type;location;lat;lon;timestamp;P1;durP1;ratioP1;P2;durP2;ratioP2
82296;SDS011;71899;51.992;8.648;2024-03-08T00:00:04;41.40;;;21.63;;
82296;SDS011;71899;51.992;8.648;2024-03-08T00:02:40;43.88;;;23.35;;
82296;SDS011;71899;51.992;8.648;2024-03-08T00:05:06;49.13;;;25.50;;
82296;SDS011;71899;51.992;8.648;2024-03-08T00:07:36;50.80;;;24.70;;
82296;SDS011;71899;51.992;8.648;2024-03-08T00:10:05;57.40;;;25.50;;
82296;SDS011;71899;51.992;8.648;2024-03-08T00:12:31;51.88;;;25.05;;
82296;SDS011;71899;51.992;8.648;2024-03-08T00:14:56;56.17;;;26.20;;
82296;SDS011;71899;51.992;8.648;2024-03-08T00:17:22;55.42;;;24.20;;
82296;SDS011;71899;51.992;8.648;2024-03-08T00:19:50;57.28;;;26.20;;
82296;SDS011;71899;51.992;8.648;2024-03-08T00:22:16;56.97;;;24.33;;
82296;SDS011;71899;51.992;8.648;2024-03-08T00:24:42;65.53;;;28.45;;
82296;SDS011;71899;51.992;8.648;2024-03-08T00:27:07;62.67;;;26.52;;
82296;SDS011;71899;51.992;8.648;2024-03-08T00:29:34;59.17;;;27.88;;
82296;SDS011;71899;51.992;8.648;2024-03-08T00:31:59;63.60;;;28.08;;
82296;SDS011;71899;51.992;8.648;2024-03-08T00:34:24;61.08;;;26.63;;
82296;SDS011;71899;51.992;8.648;2024-03-08T00:36:50;63.45;;;26.27;;
82296;SDS011;71899;51.992;8.648;2024-03-08T00:39:16;64.45;;;29.08;;
82296;SDS011;71899;51.992;8.648;2024-03-08T00:41:42;62.55;;;27.17;;
82296;SDS011;71899;51.992;8.648;2024-03-08T00:44:09;65.22;;;26.92;;
82296;SDS011;71899;51.992;8.648;2024-03-08T00:46:35;59.72;;;26.05;;
82296;SDS011;71899;51.992;8.648;2024-03-08T00:49:00;55.38;;;25.27;;
82296;SDS011;71899;51.992;8.648;2024-03-08T00:51:26;53.42;;;25.38;;
82296;SDS011;71899;51.992;8.648;2024-03-08T00:53:51;54.83;;;26.08;;
82296;SDS011;71899;51.992;8.648;2024-03-08T00:56:16;67.78;;;28.45;;
82296;SDS011;71899;51.992;8.648;2024-03-08T00:58:42;72.78;;;28.08;;
82296;SDS011;71899;51.992;8.648;2024-03-08T01:01:07;63.30;;;30.67;;
82296;SDS011;71899;51.992;8.648;2024-03-08T01:03:34;59.70;;;27.58;;
82296;SDS011;71899;51.992;8.648;2024-03-08T01:06:00;69.57;;;29.95;;
82296;SDS011;71899;51.992;8.648;2024-03-08T01:08:27;60.75;;;28.65;;
82296;SDS011;71899;51.992;8.648;2024-03-08T01:10:53;58.83;;;27.30;;
82296;SDS011;71899;51.992;8.648;2024-03-08T01:13:18;49.63;;;25.27;;
82296;SDS011;71899;51.992;8.648;2024-03-08T01:15:45;54.75;;;26.52;;
82296;SDS011;71899;51.992;8.648;2024-03-08T01:18:11;56.83;;;28.67;;
82296;SDS011;71899;51.992;8.648;2024-03-08T01:20:36;56.45;;;27.83;;
82296;SDS011;71899;51.992;8.648;2024-03-08T01:23:02;58.85;;;25.63;;
82296;SDS011;71899;51.992;8.648;2024-03-08T01:25:27;53.25;;;25.17;;
82296;SDS011;71899;51.992;8.648;2024-03-08T01:27:52;52.50;;;27.20;;
82296;SDS011;71899;51.992;8.648;2024-03-08T01:30:18;47.25;;;22.95;;
82296;SDS011;71899;51.992;8.648;2024-03-08T01:32:44;51.53;;;25.90;;
82296;SDS011;71899;51.992;8.648;2024-03-08T01:35:09;61.35;;;26.90;;
82296;SDS011;71899;51.992;8.648;2024-03-08T01:37:35;58.40;;;27.48;;
82296;SDS011;71899;51.992;8.648;2024-03-08T01:40:00;57.00;;;28.50;;
82296;SDS011;71899;51.992;8.648;2024-03-08T01:42:27;59.40;;;29.30;;
82296;SDS011;71899;51.992;8.648;2024-03-08T01:44:53;57.97;;;27.40;;
82296;SDS011;71899;51.992;8.648;2024-03-08T01:47:19;63.78;;;29.42;;
82296;SDS011;71899;51.992;8.648;2024-03-08T01:49:48;60.85;;;28.98;;
82296;SDS011;71899;51.992;8.648;2024-03-08T01:52:15;56.97;;;27.95;;
82296;SDS011;71899;51.992;8.648;2024-03-08T01:54:41;57.63;;;26.58;;
82296;SDS011;71899;51.992;8.648;2024-03-08T01:57:06;59.35;;;27.15;;
82296;SDS011;71899;51.992;8.648;2024-03-08T01:59:32;57.38;;;27.58;;
82296;SDS011;71899;51.992;8.648;2024-03-08T02:01:58;56.72;;;26.42;;
82296;SDS011;71899;51.992;8.648;2024-03-08T02:04:26;59.78;;;26.25;;
82296;SDS011;71899;51.992;8.648;2024-03-08T02:06:52;49.38;;;26.20;;
82296;SDS011;71899;51.992;8.648;2024-03-08T02:09:17;59.65;;;28.80;;
82296;SDS011;71899;51.992;8.648;2024-03-08T02:11:42;55.42;;;25.70;;
82296;SDS011;71899;51.992;8.648;2024-03-08T02:14:08;64.03;;;26.58;;
82296;SDS011;71899;51.992;8.648;2024-03-08T02:16:34;63.60;;;30.40;;
82296;SDS011;71899;51.992;8.648;2024-03-08T02:19:00;68.25;;;30.45;;
82296;SDS011;71899;51.992;8.648;2024-03-08T02:21:25;61.28;;;29.90;;
82296;SDS011;71899;51.992;8.648;2024-03-08T02:23:50;64.43;;;27.67;;
82296;SDS011;71899;51.992;8.648;2024-03-08T02:26:17;56.17;;;28.25;;
82296;SDS011;71899;51.992;8.648;2024-03-08T02:28:42;57.80;;;28.35;;
82296;SDS011;71899;51.992;8.648;2024-03-08T02:31:09;60.47;;;29.05;;
82296;SDS011;71899;51.992;8.648;2024-03-08T02:33:34;58.28;;;28.40;;
82296;SDS011;71899;51.992;8.648;2024-03-08T02:36:00;57.13;;;28.23;;
82296;SDS011;71899;51.992;8.648;2024-03-08T02:38:25;57.55;;;27.05;;
82296;SDS011;71899;51.992;8.648;2024-03-08T02:40:51;49.13;;;26.67;;
82296;SDS011;71899;51.992;8.648;2024-03-08T02:43:19;54.20;;;26.58;;
82296;SDS011;71899;51.992;8.648;2024-03-08T02:45:47;57.13;;;26.67;;
82296;SDS011;71899;51.992;8.648;2024-03-08T02:48:13;49.38;;;24.17;;
82296;SDS011;71899;51.992;8.648;2024-03-08T02:50:39;50.88;;;24.42;;
82296;SDS011;71899;51.992;8.648;2024-03-08T02:53:05;52.22;;;25.60;;
82296;SDS011;71899;51.992;8.648;2024-03-08T02:55:31;47.85;;;25.45;;
82296;SDS011;71899;51.992;8.648;2024-03-08T02:57:56;60.97;;;27.35;;
82296;SDS011;71899;51.992;8.648;2024-03-08T03:00:22;60.28;;;28.00;;
82296;SDS011;71899;51.992;8.648;2024-03-08T03:02:51;53.20;;;27.13;;
82296;SDS011;71899;51.992;8.648;2024-03-08T03:05:28;61.70;;;29.80;;
82296;SDS011;71899;51.992;8.648;2024-03-08T03:07:54;54.88;;;27.98;;
82296;SDS011;71899;51.992;8.648;2024-03-08T03:10:20;60.55;;;29.00;;
82296;SDS011;71899;51.992;8.648;2024-03-08T03:12:47;58.13;;;27.60;;
82296;SDS011;71899;51.992;8.648;2024-03-08T03:15:13;51.28;;;27.35;;
82296;SDS011;71899;51.992;8.648;2024-03-08T03:17:39;53.58;;;25.00;;
82296;SDS011;71899;51.992;8.648;2024-03-08T03:20:08;50.13;;;24.38;;
82296;SDS011;71899;51.992;8.648;2024-03-08T03:22:39;55.53;;;28.20;;
82296;SDS011;71899;51.992;8.648;2024-03-08T03:25:12;54.92;;;24.42;;
82296;SDS011;71899;51.992;8.648;2024-03-08T03:27:37;49.40;;;25.95;;
82296;SDS011;71899;51.992;8.648;2024-03-08T03:30:04;55.88;;;27.17;;
82296;SDS011;71899;51.992;8.648;2024-03-08T03:32:46;54.28;;;25.83;;
82296;SDS011;71899;51.992;8.648;2024-03-08T03:35:18;52.97;;;25.52;;
82296;SDS011;71899;51.992;8.648;2024-03-08T03:37:45;46.17;;;25.00;;
82296;SDS011;71899;51.992;8.648;2024-03-08T03:40:27;50.35;;;25.13;;
82296;SDS011;71899;51.992;8.648;2024-03-08T03:42:53;52.35;;;25.38;;
82296;SDS011;71899;51.992;8.648;2024-03-08T03:45:18;48.72;;;23.63;;
82296;SDS011;71899;51.992;8.648;2024-03-08T03:47:45;50.85;;;24.83;;
82296;SDS011;71899;51.992;8.648;2024-03-08T03:50:10;52.50;;;24.60;;
82296;SDS011;71899;51.992;8.648;2024-03-08T03:52:36;55.08;;;25.77;;
82296;SDS011;71899;51.992;8.648;2024-03-08T03:55:01;51.13;;;26.70;;
82296;SDS011;71899;51.992;8.648;2024-03-08T03:57:27;56.85;;;27.45;;
82296;SDS011;71899;51.992;8.648;2024-03-08T03:59:52;56.35;;;24.98;;
82296;SDS011;71899;51.992;8.648;2024-03-08T04:02:17;57.50;;;28.30;;
82296;SDS011;71899;51.992;8.648;2024-03-08T04:04:45;59.63;;;28.25;;
82296;SDS011;71899;51.992;8.648;2024-03-08T04:07:10;57.95;;;26.67;;
82296;SDS011;71899;51.992;8.648;2024-03-08T04:09:36;56.22;;;28.35;;
82296;SDS011;71899;51.992;8.648;2024-03-08T04:12:01;58.55;;;27.02;;
82296;SDS011;71899;51.992;8.648;2024-03-08T04:14:27;57.08;;;26.30;;
82296;SDS011;71899;51.992;8.648;2024-03-08T04:16:52;54.33;;;26.17;;
82296;SDS011;71899;51.992;8.648;2024-03-08T04:19:17;62.38;;;27.27;;
82296;SDS011;71899;51.992;8.648;2024-03-08T04:21:44;61.15;;;28.88;;
82296;SDS011;71899;51.992;8.648;2024-03-08T04:24:09;62.28;;;27.98;;
82296;SDS011;71899;51.992;8.648;2024-03-08T04:26:36;72.15;;;30.40;;
82296;SDS011;71899;51.992;8.648;2024-03-08T04:29:02;73.25;;;32.67;;
82296;SDS011;71899;51.992;8.648;2024-03-08T04:31:28;69.95;;;32.45;;
82296;SDS011;71899;51.992;8.648;2024-03-08T04:33:53;73.88;;;31.88;;
82296;SDS011;71899;51.992;8.648;2024-03-08T04:36:19;74.57;;;32.28;;
82296;SDS011;71899;51.992;8.648;2024-03-08T04:38:45;80.22;;;33.20;;
82296;SDS011;71899;51.992;8.648;2024-03-08T04:41:10;65.38;;;30.85;;
82296;SDS011;71899;51.992;8.648;2024-03-08T04:43:36;65.50;;;31.20;;
82296;SDS011;71899;51.992;8.648;2024-03-08T04:46:01;61.00;;;28.58;;
82296;SDS011;71899;51.992;8.648;2024-03-08T04:48:29;58.60;;;31.08;;
82296;SDS011;71899;51.992;8.648;2024-03-08T04:50:54;55.58;;;27.77;;
82296;SDS011;71899;51.992;8.648;2024-03-08T04:53:20;58.13;;;25.73;;
82296;SDS011;71899;51.992;8.648;2024-03-08T04:55:46;51.55;;;26.88;;
82296;SDS011;71899;51.992;8.648;2024-03-08T04:58:11;54.17;;;26.13;;
82296;SDS011;71899;51.992;8.648;2024-03-08T05:00:36;53.95;;;25.50;;
82296;SDS011;71899;51.992;8.648;2024-03-08T05:03:02;54.22;;;29.02;;
82296;SDS011;71899;51.992;8.648;2024-03-08T05:05:27;56.40;;;28.13;;
82296;SDS011;71899;51.992;8.648;2024-03-08T05:07:54;46.85;;;24.98;;
82296;SDS011;71899;51.992;8.648;2024-03-08T05:10:19;53.25;;;25.73;;
82296;SDS011;71899;51.992;8.648;2024-03-08T05:12:45;49.72;;;25.17;;
82296;SDS011;71899;51.992;8.648;2024-03-08T05:15:10;48.90;;;25.50;;
82296;SDS011;71899;51.992;8.648;2024-03-08T05:17:35;48.85;;;25.73;;
82296;SDS011;71899;51.992;8.648;2024-03-08T05:20:01;58.65;;;28.45;;
82296;SDS011;71899;51.992;8.648;2024-03-08T05:22:27;57.97;;;28.83;;
82296;SDS011;71899;51.992;8.648;2024-03-08T05:24:52;56.60;;;26.50;;
82296;SDS011;71899;51.992;8.648;2024-03-08T05:27:18;61.45;;;26.92;;
82296;SDS011;71899;51.992;8.648;2024-03-08T05:29:43;53.72;;;25.83;;
82296;SDS011;71899;51.992;8.648;2024-03-08T05:32:08;67.82;;;28.25;;
82296;SDS011;71899;51.992;8.648;2024-03-08T05:34:35;62.60;;;28.30;;
82296;SDS011;71899;51.992;8.648;2024-03-08T05:37:00;57.17;;;28.63;;
82296;SDS011;71899;51.992;8.648;2024-03-08T05:39:26;64.65;;;28.65;;
82296;SDS011;71899;51.992;8.648;2024-03-08T05:41:51;53.72;;;26.48;;
82296;SDS011;71899;51.992;8.648;2024-03-08T05:44:17;55.25;;;27.02;;
82296;SDS011;71899;51.992;8.648;2024-03-08T05:46:43;51.65;;;28.17;;
82296;SDS011;71899;51.992;8.648;2024-03-08T05:49:08;54.22;;;28.02;;
82296;SDS011;71899;51.992;8.648;2024-03-08T05:51:36;50.03;;;25.27;;
82296;SDS011;71899;51.992;8.648;2024-03-08T05:54:02;60.00;;;26.70;;
82296;SDS011;71899;51.992;8.648;2024-03-08T05:56:28;53.67;;;27.83;;
82296;SDS011;71899;51.992;8.648;2024-03-08T05:58:57;60.88;;;28.83;;
82296;SDS011;71899;51.992;8.648;2024-03-08T06:01:23;54.03;;;27.10;;
82296;SDS011;71899;51.992;8.648;2024-03-08T06:03:55;58.13;;;28.55;;
82296;SDS011;71899;51.992;8.648;2024-03-08T06:06:24;51.97;;;28.30;;
82296;SDS011;71899;51.992;8.648;2024-03-08T06:08:50;56.10;;;29.00;;
82296;SDS011;71899;51.992;8.648;2024-03-08T06:11:16;56.08;;;28.05;;
82296;SDS011;71899;51.992;8.648;2024-03-08T06:13:45;59.63;;;26.95;;
82296;SDS011;71899;51.992;8.648;2024-03-08T06:16:11;58.22;;;26.75;;
82296;SDS011;71899;51.992;8.648;2024-03-08T06:18:37;49.70;;;25.75;;
82296;SDS011;71899;51.992;8.648;2024-03-08T06:21:05;53.58;;;26.77;;
82296;SDS011;71899;51.992;8.648;2024-03-08T06:23:31;52.40;;;27.45;;
82296;SDS011;71899;51.992;8.648;2024-03-08T06:26:03;55.33;;;26.48;;
82296;SDS011;71899;51.992;8.648;2024-03-08T06:28:29;50.58;;;26.98;;
82296;SDS011;71899;51.992;8.648;2024-03-08T06:30:54;51.15;;;27.42;;
82296;SDS011;71899;51.992;8.648;2024-03-08T06:33:19;47.72;;;25.38;;
82296;SDS011;71899;51.992;8.648;2024-03-08T06:35:46;48.85;;;24.25;;
82296;SDS011;71899;51.992;8.648;2024-03-08T06:38:11;49.85;;;23.92;;
82296;SDS011;71899;51.992;8.648;2024-03-08T06:40:37;41.35;;;21.70;;
82296;SDS011;71899;51.992;8.648;2024-03-08T06:43:02;40.70;;;20.75;;
82296;SDS011;71899;51.992;8.648;2024-03-08T06:45:31;43.03;;;20.90;;
82296;SDS011;71899;51.992;8.648;2024-03-08T06:47:56;43.17;;;22.70;;
82296;SDS011;71899;51.992;8.648;2024-03-08T06:50:21;43.47;;;22.50;;
82296;SDS011;71899;51.992;8.648;2024-03-08T06:52:47;49.83;;;23.08;;
82296;SDS011;71899;51.992;8.648;2024-03-08T06:55:18;45.30;;;23.27;;
82296;SDS011;71899;51.992;8.648;2024-03-08T06:57:44;50.30;;;24.83;;
82296;SDS011;71899;51.992;8.648;2024-03-08T07:00:10;45.45;;;23.02;;
82296;SDS011;71899;51.992;8.648;2024-03-08T07:02:37;40.25;;;22.88;;
82296;SDS011;71899;51.992;8.648;2024-03-08T07:05:04;42.13;;;22.95;;
82296;SDS011;71899;51.992;8.648;2024-03-08T07:07:30;37.75;;;20.02;;
82296;SDS011;71899;51.992;8.648;2024-03-08T07:09:57;35.33;;;19.75;;
82296;SDS011;71899;51.992;8.648;2024-03-08T07:12:22;33.97;;;19.25;;
82296;SDS011;71899;51.992;8.648;2024-03-08T07:14:48;36.47;;;19.98;;
82296;SDS011;71899;51.992;8.648;2024-03-08T07:17:13;40.08;;;20.73;;
82296;SDS011;71899;51.992;8.648;2024-03-08T07:19:39;36.28;;;19.77;;
82296;SDS011;71899;51.992;8.648;2024-03-08T07:22:05;37.65;;;19.60;;
82296;SDS011;71899;51.992;8.648;2024-03-08T07:24:34;38.85;;;18.35;;
82296;SDS011;71899;51.992;8.648;2024-03-08T07:27:03;34.92;;;19.45;;
82296;SDS011;71899;51.992;8.648;2024-03-08T07:29:30;34.95;;;17.52;;
82296;SDS011;71899;51.992;8.648;2024-03-08T07:31:56;32.53;;;17.88;;
82296;SDS011;71899;51.992;8.648;2024-03-08T07:34:37;37.65;;;19.98;;
82296;SDS011;71899;51.992;8.648;2024-03-08T07:37:02;32.33;;;19.45;;
82296;SDS011;71899;51.992;8.648;2024-03-08T07:39:29;32.40;;;18.83;;
82296;SDS011;71899;51.992;8.648;2024-03-08T07:41:54;30.42;;;17.08;;
82296;SDS011;71899;51.992;8.648;2024-03-08T07:44:20;36.90;;;18.92;;
82296;SDS011;71899;51.992;8.648;2024-03-08T07:46:45;29.55;;;18.73;;
82296;SDS011;71899;51.992;8.648;2024-03-08T07:49:10;33.78;;;18.33;;
82296;SDS011;71899;51.992;8.648;2024-03-08T07:51:37;33.67;;;19.45;;
82296;SDS011;71899;51.992;8.648;2024-03-08T07:54:03;32.03;;;18.25;;
82296;SDS011;71899;51.992;8.648;2024-03-08T07:56:29;37.30;;;20.45;;
82296;SDS011;71899;51.992;8.648;2024-03-08T07:58:55;28.80;;;17.90;;
82296;SDS011;71899;51.992;8.648;2024-03-08T08:01:21;33.75;;;19.05;;
82296;SDS011;71899;51.992;8.648;2024-03-08T08:03:46;32.22;;;18.38;;
82296;SDS011;71899;51.992;8.648;2024-03-08T08:06:14;29.08;;;18.67;;
82296;SDS011;71899;51.992;8.648;2024-03-08T08:08:44;35.72;;;19.65;;
82296;SDS011;71899;51.992;8.648;2024-03-08T08:11:09;31.33;;;18.33;;
82296;SDS011;71899;51.992;8.648;2024-03-08T08:13:36;32.45;;;20.05;;
82296;SDS011;71899;51.992;8.648;2024-03-08T08:16:02;33.58;;;19.63;;
82296;SDS011;71899;51.992;8.648;2024-03-08T08:18:28;31.25;;;18.65;;
82296;SDS011;71899;51.992;8.648;2024-03-08T08:20:55;31.70;;;19.63;;
82296;SDS011;71899;51.992;8.648;2024-03-08T08:23:21;30.98;;;18.42;;
82296;SDS011;71899;51.992;8.648;2024-03-08T08:25:46;40.40;;;19.65;;
82296;SDS011;71899;51.992;8.648;2024-03-08T08:28:15;35.60;;;20.13;;
82296;SDS011;71899;51.992;8.648;2024-03-08T08:30:45;35.92;;;19.42;;
82296;SDS011;71899;51.992;8.648;2024-03-08T08:33:10;35.65;;;19.35;;
82296;SDS011;71899;51.992;8.648;2024-03-08T08:35:38;35.92;;;20.67;;
82296;SDS011;71899;51.992;8.648;2024-03-08T08:38:06;33.60;;;20.02;;
82296;SDS011;71899;51.992;8.648;2024-03-08T08:40:34;35.58;;;20.88;;
82296;SDS011;71899;51.992;8.648;2024-03-08T08:43:01;37.33;;;21.02;;
82296;SDS011;71899;51.992;8.648;2024-03-08T08:45:29;34.03;;;19.88;;
82296;SDS011;71899;51.992;8.648;2024-03-08T08:47:55;33.67;;;18.45;;
82296;SDS011;71899;51.992;8.648;2024-03-08T08:50:20;35.10;;;20.08;;
82296;SDS011;71899;51.992;8.648;2024-03-08T08:52:48;29.17;;;16.80;;
82296;SDS011;71899;51.992;8.648;2024-03-08T08:55:14;40.35;;;20.92;;
82296;SDS011;71899;51.992;8.648;2024-03-08T08:57:40;37.45;;;20.85;;
82296;SDS011;71899;51.992;8.648;2024-03-08T09:00:05;37.67;;;20.98;;
82296;SDS011;71899;51.992;8.648;2024-03-08T09:02:32;33.85;;;18.58;;
82296;SDS011;71899;51.992;8.648;2024-03-08T09:04:59;36.20;;;19.98;;
82296;SDS011;71899;51.992;8.648;2024-03-08T09:07:25;33.40;;;19.48;;
82296;SDS011;71899;51.992;8.648;2024-03-08T09:09:52;37.65;;;21.33;;
82296;SDS011;71899;51.992;8.648;2024-03-08T09:12:21;32.75;;;18.75;;
82296;SDS011;71899;51.992;8.648;2024-03-08T09:14:47;30.35;;;18.55;;
82296;SDS011;71899;51.992;8.648;2024-03-08T09:17:13;32.28;;;18.48;;
82296;SDS011;71899;51.992;8.648;2024-03-08T09:19:42;32.38;;;18.23;;
82296;SDS011;71899;51.992;8.648;2024-03-08T09:22:08;29.33;;;17.45;;
82296;SDS011;71899;51.992;8.648;2024-03-08T09:24:33;29.52;;;15.95;;
82296;SDS011;71899;51.992;8.648;2024-03-08T09:26:59;32.10;;;18.88;;
82296;SDS011;71899;51.992;8.648;2024-03-08T09:29:24;33.75;;;19.35;;
82296;SDS011;71899;51.992;8.648;2024-03-08T09:31:49;36.65;;;18.83;;
82296;SDS011;71899;51.992;8.648;2024-03-08T09:34:15;35.03;;;18.83;;
82296;SDS011;71899;51.992;8.648;2024-03-08T09:36:40;28.23;;;17.45;;
82296;SDS011;71899;51.992;8.648;2024-03-08T09:39:06;31.33;;;18.80;;
82296;SDS011;71899;51.992;8.648;2024-03-08T09:41:32;30.13;;;18.85;;
82296;SDS011;71899;51.992;8.648;2024-03-08T09:43:59;28.17;;;18.23;;
82296;SDS011;71899;51.992;8.648;2024-03-08T09:46:25;32.97;;;18.40;;
82296;SDS011;71899;51.992;8.648;2024-03-08T09:48:52;31.95;;;18.75;;
82296;SDS011;71899;51.992;8.648;2024-03-08T09:51:19;31.83;;;18.65;;
82296;SDS011;71899;51.992;8.648;2024-03-08T09:53:50;29.05;;;17.63;;
82296;SDS011;71899;51.992;8.648;2024-03-08T09:56:15;27.13;;;17.83;;
82296;SDS011;71899;51.992;8.648;2024-03-08T09:58:40;31.23;;;17.63;;
82296;SDS011;71899;51.992;8.648;2024-03-08T10:01:24;27.95;;;16.75;;
82296;SDS011;71899;51.992;8.648;2024-03-08T10:03:51;39.22;;;19.40;;
82296;SDS011;71899;51.992;8.648;2024-03-08T10:06:18;26.90;;;15.75;;
82296;SDS011;71899;51.992;8.648;2024-03-08T10:08:48;28.83;;;18.05;;
82296;SDS011;71899;51.992;8.648;2024-03-08T10:11:13;25.65;;;17.27;;
82296;SDS011;71899;51.992;8.648;2024-03-08T10:13:39;31.95;;;19.58;;
82296;SDS011;71899;51.992;8.648;2024-03-08T10:16:05;32.72;;;18.70;;
82296;SDS011;71899;51.992;8.648;2024-03-08T10:18:32;29.70;;;17.85;;
82296;SDS011;71899;51.992;8.648;2024-03-08T10:21:04;26.73;;;15.57;;
82296;SDS011;71899;51.992;8.648;2024-03-08T10:23:32;32.95;;;17.35;;
82296;SDS011;71899;51.992;8.648;2024-03-08T10:26:09;22.67;;;14.38;;
82296;SDS011;71899;51.992;8.648;2024-03-08T10:28:35;26.20;;;15.07;;
82296;SDS011;71899;51.992;8.648;2024-03-08T10:31:00;25.48;;;15.60;;
82296;SDS011;71899;51.992;8.648;2024-03-08T10:33:26;21.67;;;13.57;;
82296;SDS011;71899;51.992;8.648;2024-03-08T10:35:53;24.10;;;13.52;;
82296;SDS011;71899;51.992;8.648;2024-03-08T10:38:19;25.73;;;15.20;;
82296;SDS011;71899;51.992;8.648;2024-03-08T10:40:47;20.92;;;12.75;;
82296;SDS011;71899;51.992;8.648;2024-03-08T10:43:24;22.67;;;13.80;;
82296;SDS011;71899;51.992;8.648;2024-03-08T10:46:02;21.25;;;12.52;;
82296;SDS011;71899;51.992;8.648;2024-03-08T10:48:47;24.70;;;14.00;;
82296;SDS011;71899;51.992;8.648;2024-03-08T10:51:18;29.42;;;17.67;;
82296;SDS011;71899;51.992;8.648;2024-03-08T10:53:44;24.92;;;14.70;;
82296;SDS011;71899;51.992;8.648;2024-03-08T10:56:12;28.23;;;16.52;;
82296;SDS011;71899;51.992;8.648;2024-03-08T10:58:39;24.73;;;13.82;;
82296;SDS011;71899;51.992;8.648;2024-03-08T11:01:06;29.75;;;16.50;;
82296;SDS011;71899;51.992;8.648;2024-03-08T11:06:07;26.35;;;16.63;;
82296;SDS011;71899;51.992;8.648;2024-03-08T11:08:35;27.67;;;16.17;;
82296;SDS011;71899;51.992;8.648;2024-03-08T11:11:01;25.80;;;16.35;;
82296;SDS011;71899;51.992;8.648;2024-03-08T11:13:42;29.95;;;17.83;;
82296;SDS011;71899;51.992;8.648;2024-03-08T11:16:57;25.75;;;15.98;;
82296;SDS011;71899;51.992;8.648;2024-03-08T11:18:58;24.73;;;15.77;;
82296;SDS011;71899;51.992;8.648;2024-03-08T11:21:29;24.90;;;15.77;;
82296;SDS011;71899;51.992;8.648;2024-03-08T11:23:59;28.15;;;18.48;;
82296;SDS011;71899;51.992;8.648;2024-03-08T11:26:25;25.40;;;15.77;;
82296;SDS011;71899;51.992;8.648;2024-03-08T11:28:51;24.25;;;14.70;;
82296;SDS011;71899;51.992;8.648;2024-03-08T11:33:46;25.35;;;15.45;;
82296;SDS011;71899;51.992;8.648;2024-03-08T11:36:19;23.65;;;16.23;;
82296;SDS011;71899;51.992;8.648;2024-03-08T11:38:47;23.13;;;15.98;;
82296;SDS011;71899;51.992;8.648;2024-03-08T11:41:21;26.73;;;15.65;;
82296;SDS011;71899;51.992;8.648;2024-03-08T11:43:48;29.48;;;16.42;;
82296;SDS011;71899;51.992;8.648;2024-03-08T11:46:15;26.00;;;15.85;;
82296;SDS011;71899;51.992;8.648;2024-03-08T11:48:42;25.15;;;16.05;;
82296;SDS011;71899;51.992;8.648;2024-03-08T11:51:10;24.38;;;16.40;;
82296;SDS011;71899;51.992;8.648;2024-03-08T11:53:36;26.55;;;16.38;;
82296;SDS011;71899;51.992;8.648;2024-03-08T11:56:08;21.60;;;14.23;;
82296;SDS011;71899;51.992;8.648;2024-03-08T11:58:35;23.33;;;15.23;;
82296;SDS011;71899;51.992;8.648;2024-03-08T12:01:04;24.13;;;15.45;;
82296;SDS011;71899;51.992;8.648;2024-03-08T12:03:31;23.67;;;13.98;;
82296;SDS011;71899;51.992;8.648;2024-03-08T12:05:59;28.33;;;16.55;;
82296;SDS011;71899;51.992;8.648;2024-03-08T12:08:25;23.83;;;14.75;;
82296;SDS011;71899;51.992;8.648;2024-03-08T12:10:53;22.25;;;13.98;;
82296;SDS011;71899;51.992;8.648;2024-03-08T12:13:24;22.42;;;13.55;;
82296;SDS011;71899;51.992;8.648;2024-03-08T12:15:54;21.98;;;13.52;;
82296;SDS011;71899;51.992;8.648;2024-03-08T12:18:21;25.65;;;14.30;;
82296;SDS011;71899;51.992;8.648;2024-03-08T12:20:47;18.88;;;11.00;;
82296;SDS011;71899;51.992;8.648;2024-03-08T12:23:15;17.20;;;10.68;;
82296;SDS011;71899;51.992;8.648;2024-03-08T12:25:41;22.92;;;13.57;;
82296;SDS011;71899;51.992;8.648;2024-03-08T12:28:07;21.30;;;13.00;;
82296;SDS011;71899;51.992;8.648;2024-03-08T12:30:44;23.42;;;13.85;;
82296;SDS011;71899;51.992;8.648;2024-03-08T12:33:13;23.08;;;13.98;;
82296;SDS011;71899;51.992;8.648;2024-03-08T12:35:39;22.30;;;13.48;;
82296;SDS011;71899;51.992;8.648;2024-03-08T12:38:06;22.73;;;13.95;;
82296;SDS011;71899;51.992;8.648;2024-03-08T12:40:33;22.60;;;12.02;;
82296;SDS011;71899;51.992;8.648;2024-03-08T12:43:00;17.27;;;12.07;;
82296;SDS011;71899;51.992;8.648;2024-03-08T12:45:26;23.48;;;13.65;;
82296;SDS011;71899;51.992;8.648;2024-03-08T12:47:52;21.98;;;12.93;;
82296;SDS011;71899;51.992;8.648;2024-03-08T12:50:19;22.27;;;13.38;;
82296;SDS011;71899;51.992;8.648;2024-03-08T12:52:48;20.83;;;12.82;;
82296;SDS011;71899;51.992;8.648;2024-03-08T12:55:14;23.48;;;13.25;;
82296;SDS011;71899;51.992;8.648;2024-03-08T12:57:41;21.35;;;12.25;;
82296;SDS011;71899;51.992;8.648;2024-03-08T13:00:06;25.00;;;13.77;;
82296;SDS011;71899;51.992;8.648;2024-03-08T13:02:38;21.02;;;12.63;;
82296;SDS011;71899;51.992;8.648;2024-03-08T13:05:04;20.63;;;12.98;;
82296;SDS011;71899;51.992;8.648;2024-03-08T13:07:31;21.58;;;13.02;;
82296;SDS011;71899;51.992;8.648;2024-03-08T13:09:56;22.38;;;14.00;;
82296;SDS011;71899;51.992;8.648;2024-03-08T13:12:24;22.15;;;14.38;;
82296;SDS011;71899;51.992;8.648;2024-03-08T13:14:50;23.77;;;13.57;;
82296;SDS011;71899;51.992;8.648;2024-03-08T13:17:16;23.70;;;13.10;;
82296;SDS011;71899;51.992;8.648;2024-03-08T13:19:43;21.13;;;12.02;;
82296;SDS011;71899;51.992;8.648;2024-03-08T13:22:09;26.25;;;14.45;;
82296;SDS011;71899;51.992;8.648;2024-03-08T13:24:38;25.13;;;14.25;;
82296;SDS011;71899;51.992;8.648;2024-03-08T13:27:08;22.38;;;13.80;;
82296;SDS011;71899;51.992;8.648;2024-03-08T13:29:47;23.60;;;15.68;;
82296;SDS011;71899;51.992;8.648;2024-03-08T13:32:16;21.33;;;14.52;;
82296;SDS011;71899;51.992;8.648;2024-03-08T13:34:44;22.33;;;13.40;;
82296;SDS011;71899;51.992;8.648;2024-03-08T13:37:10;26.00;;;14.57;;
82296;SDS011;71899;51.992;8.648;2024-03-08T13:39:36;24.50;;;13.95;;
82296;SDS011;71899;51.992;8.648;2024-03-08T13:42:23;22.83;;;14.85;;
82296;SDS011;71899;51.992;8.648;2024-03-08T13:44:51;27.08;;;14.20;;
82296;SDS011;71899;51.992;8.648;2024-03-08T13:47:17;22.63;;;14.32;;
82296;SDS011;71899;51.992;8.648;2024-03-08T13:49:44;21.95;;;13.60;;
82296;SDS011;71899;51.992;8.648;2024-03-08T13:52:13;23.27;;;14.57;;
82296;SDS011;71899;51.992;8.648;2024-03-08T13:54:41;28.92;;;13.80;;
82296;SDS011;71899;51.992;8.648;2024-03-08T13:57:07;21.20;;;13.55;;
82296;SDS011;71899;51.992;8.648;2024-03-08T13:59:35;24.90;;;14.35;;
82296;SDS011;71899;51.992;8.648;2024-03-08T14:02:01;21.75;;;12.75;;
82296;SDS011;71899;51.992;8.648;2024-03-08T14:04:31;23.58;;;15.55;;
82296;SDS011;71899;51.992;8.648;2024-03-08T14:06:57;23.63;;;14.32;;
82296;SDS011;71899;51.992;8.648;2024-03-08T14:09:26;21.55;;;13.82;;
82296;SDS011;71899;51.992;8.648;2024-03-08T14:11:54;22.10;;;12.40;;
82296;SDS011;71899;51.992;8.648;2024-03-08T14:14:23;24.15;;;14.23;;
82296;SDS011;71899;51.992;8.648;2024-03-08T14:16:54;23.23;;;13.13;;
82296;SDS011;71899;51.992;8.648;2024-03-08T14:19:23;26.45;;;13.85;;
82296;SDS011;71899;51.992;8.648;2024-03-08T14:21:48;21.45;;;13.85;;
82296;SDS011;71899;51.992;8.648;2024-03-08T14:24:14;25.67;;;14.18;;